createdAt,value
2024-02-24T00:01:25.764Z,7.00
2024-02-24T00:03:53.840Z,7.00
2024-02-24T00:06:22.126Z,6.90
2024-02-24T00:08:50.259Z,6.90
2024-02-24T00:11:18.541Z,6.90
2024-02-24T00:13:46.761Z,7.00
2024-02-24T00:16:16.565Z,7.00
2024-02-24T00:18:44.733Z,7.00
2024-02-24T00:21:12.913Z,7.00
2024-02-24T00:23:41.096Z,6.90
2024-02-24T00:26:09.270Z,6.90
2024-02-24T00:28:40.231Z,6.80
2024-02-24T00:31:08.627Z,6.70
2024-02-24T00:33:42.193Z,6.80
2024-02-24T00:36:10.607Z,6.80
2024-02-24T00:38:38.800Z,6.80
2024-02-24T00:41:07.026Z,6.80
2024-02-24T00:43:35.260Z,6.80
2024-02-24T00:46:03.626Z,6.70
2024-02-24T00:48:31.737Z,6.70
2024-02-24T00:51:01.167Z,6.70
2024-02-24T00:53:29.394Z,6.60
2024-02-24T00:55:57.676Z,6.70
2024-02-24T00:58:25.758Z,6.60
2024-02-24T01:00:54.042Z,6.60
2024-02-24T01:03:22.209Z,6.60
2024-02-24T01:05:50.702Z,6.70
2024-02-24T01:08:20.346Z,6.60
2024-02-24T01:10:48.625Z,6.60
2024-02-24T01:13:16.832Z,6.60
2024-02-24T01:15:45.241Z,6.60
2024-02-24T01:18:13.510Z,6.60
2024-02-24T01:20:42.216Z,6.60
2024-02-24T01:23:10.328Z,6.50
2024-02-24T01:25:39.875Z,6.50
2024-02-24T01:28:07.978Z,6.50
2024-02-24T01:30:37.768Z,6.30
2024-02-24T01:33:06.989Z,6.30
2024-02-24T01:35:36.503Z,6.30
2024-02-24T01:38:05.921Z,6.30
2024-02-24T01:40:34.244Z,6.20
2024-02-24T01:43:04.013Z,6.10
2024-02-24T01:45:32.162Z,6.20
2024-02-24T01:48:02.835Z,6.10
2024-02-24T01:50:31.153Z,6.10
2024-02-24T01:52:59.463Z,6.00
2024-02-24T01:55:27.670Z,6.00
2024-02-24T01:57:56.565Z,6.00
2024-02-24T02:00:26.119Z,6.00
2024-02-24T02:02:54.467Z,6.00
2024-02-24T02:05:22.702Z,5.90
2024-02-24T02:07:50.845Z,5.90
2024-02-24T02:10:19.320Z,5.90
2024-02-24T02:12:47.586Z,5.90
2024-02-24T02:15:16.533Z,5.90
2024-02-24T02:17:46.475Z,5.80
2024-02-24T02:20:14.695Z,5.70
2024-02-24T02:22:44.216Z,5.60
2024-02-24T02:25:13.070Z,5.60
2024-02-24T02:27:41.177Z,5.60
2024-02-24T02:30:10.367Z,5.60
2024-02-24T02:32:38.741Z,5.60
2024-02-24T02:35:08.016Z,5.60
2024-02-24T02:37:36.214Z,5.60
2024-02-24T02:40:06.608Z,5.60
2024-02-24T02:42:35.619Z,5.70
2024-02-24T02:45:04.431Z,5.70
2024-02-24T02:47:32.938Z,5.50
2024-02-24T02:50:01.302Z,5.50
2024-02-24T02:52:29.439Z,5.50
2024-02-24T02:54:57.603Z,5.50
2024-02-24T02:57:27.654Z,5.50
2024-02-24T02:59:55.908Z,5.40
2024-02-24T03:02:24.389Z,5.40
2024-02-24T03:04:52.615Z,5.50
2024-02-24T03:07:20.747Z,5.50
2024-02-24T03:09:49.214Z,5.40
2024-02-24T03:12:20.581Z,5.30
2024-02-24T03:14:50.192Z,5.20
2024-02-24T03:17:18.339Z,5.10
2024-02-24T03:19:46.606Z,5.20
2024-02-24T03:22:14.871Z,5.10
2024-02-24T03:24:43.687Z,5.10
2024-02-24T03:27:12.588Z,5.20
2024-02-24T03:29:40.870Z,5.20
2024-02-24T03:32:11.560Z,5.20
2024-02-24T03:34:39.759Z,5.20
2024-02-24T03:37:07.898Z,5.30
2024-02-24T03:39:36.015Z,5.30
2024-02-24T03:42:04.161Z,5.20
2024-02-24T03:44:32.356Z,5.20
2024-02-24T03:47:00.510Z,5.20
2024-02-24T03:49:30.072Z,5.10
2024-02-24T03:51:58.326Z,5.00
2024-02-24T03:54:27.035Z,5.00
2024-02-24T03:56:57.614Z,5.00
2024-02-24T03:59:25.848Z,5.10
2024-02-24T04:01:54.270Z,5.10
2024-02-24T04:04:22.487Z,5.10
2024-02-24T04:06:52.085Z,5.00
2024-02-24T04:09:20.564Z,5.00
2024-02-24T04:11:49.806Z,5.00
2024-02-24T04:14:18.668Z,5.00
2024-02-24T04:16:46.861Z,5.10
2024-02-24T04:19:15.137Z,5.00
2024-02-24T04:21:43.314Z,4.90
2024-02-24T04:24:12.863Z,4.90
2024-02-24T04:26:41.018Z,4.90
2024-02-24T04:29:09.170Z,4.80
2024-02-24T04:31:37.359Z,4.80
2024-02-24T04:34:05.719Z,4.80
2024-02-24T04:36:33.953Z,4.80
2024-02-24T04:39:02.284Z,4.80
2024-02-24T04:41:31.774Z,4.90
2024-02-24T04:43:59.944Z,4.80
2024-02-24T04:46:28.292Z,4.80
2024-02-24T04:48:56.648Z,4.70
2024-02-24T04:51:24.784Z,4.70
2024-02-24T04:53:52.967Z,4.80
2024-02-24T04:56:21.218Z,4.80
2024-02-24T04:58:50.715Z,4.80
2024-02-24T05:01:19.035Z,4.80
2024-02-24T05:03:49.681Z,4.70
2024-02-24T05:06:18.074Z,4.70
2024-02-24T05:08:46.317Z,4.70
2024-02-24T05:11:14.587Z,4.70
2024-02-24T05:13:42.797Z,4.70
2024-02-24T05:16:12.399Z,4.70
2024-02-24T05:18:40.745Z,4.70
2024-02-24T05:21:09.073Z,4.60
2024-02-24T05:23:39.045Z,4.60
2024-02-24T05:26:07.421Z,4.60
2024-02-24T05:28:35.728Z,4.60
2024-02-24T05:31:03.812Z,4.50
2024-02-24T05:33:33.747Z,4.50
2024-02-24T05:36:02.087Z,4.60
2024-02-24T05:38:30.218Z,4.50
2024-02-24T05:40:58.314Z,4.50
2024-02-24T05:43:26.452Z,4.60
2024-02-24T05:45:55.569Z,4.60
2024-02-24T05:48:24.138Z,4.60
2024-02-24T05:50:54.007Z,4.60
2024-02-24T05:53:23.204Z,4.70
2024-02-24T05:55:52.271Z,4.70
2024-02-24T05:58:21.752Z,4.70
2024-02-24T06:00:49.968Z,4.80
2024-02-24T06:03:18.167Z,4.80
2024-02-24T06:05:46.484Z,4.80
2024-02-24T06:08:16.320Z,4.70
2024-02-24T06:10:44.479Z,4.70
2024-02-24T06:13:12.631Z,4.80
2024-02-24T06:15:40.996Z,4.70
2024-02-24T06:18:09.207Z,4.70
2024-02-24T06:20:37.645Z,4.80
2024-02-24T06:23:06.761Z,4.80
2024-02-24T06:25:36.580Z,4.90
2024-02-24T06:28:05.028Z,4.90
2024-02-24T06:30:33.533Z,4.90
2024-02-24T06:33:01.859Z,4.90
2024-02-24T06:35:30.197Z,4.90
2024-02-24T06:37:58.358Z,4.90
2024-02-24T06:40:33.258Z,5.00
2024-02-24T06:43:10.272Z,5.10
2024-02-24T06:45:38.437Z,5.10
2024-02-24T06:48:07.725Z,5.10
2024-02-24T06:50:36.402Z,5.10
2024-02-24T06:53:04.781Z,5.10
2024-02-24T06:55:32.925Z,5.20
2024-02-24T06:58:01.135Z,5.20
2024-02-24T07:00:30.728Z,5.20
2024-02-24T07:02:59.035Z,5.20
2024-02-24T07:05:27.452Z,5.30
2024-02-24T07:07:55.722Z,5.30
2024-02-24T07:10:24.198Z,5.30
2024-02-24T07:12:52.446Z,5.40
2024-02-24T07:15:20.866Z,5.50
2024-02-24T07:17:50.438Z,5.40
2024-02-24T07:20:18.675Z,5.40
2024-02-24T07:22:49.751Z,5.40
2024-02-24T07:25:18.502Z,5.40
2024-02-24T07:27:46.899Z,5.40
2024-02-24T07:30:15.429Z,5.50
2024-02-24T07:32:44.858Z,5.50
2024-02-24T07:35:15.528Z,5.70
2024-02-24T07:37:43.790Z,5.70
2024-02-24T07:40:13.037Z,5.70
2024-02-24T07:42:41.244Z,5.80
2024-02-24T07:45:10.401Z,5.80
2024-02-24T07:47:38.856Z,5.80
2024-02-24T07:50:08.986Z,5.80
2024-02-24T07:52:39.158Z,5.90
2024-02-24T07:55:10.832Z,5.80
2024-02-24T07:57:39.004Z,5.90
2024-02-24T08:00:11.437Z,5.80
2024-02-24T08:02:39.618Z,5.90
2024-02-24T08:05:08.579Z,5.90
2024-02-24T08:07:38.141Z,5.80
2024-02-24T08:10:07.504Z,5.80
2024-02-24T08:12:35.825Z,5.80
2024-02-24T08:15:04.263Z,5.80
2024-02-24T08:17:34.649Z,5.90
2024-02-24T08:20:02.903Z,5.90
2024-02-24T08:22:30.994Z,5.90
2024-02-24T08:25:00.555Z,5.90
2024-02-24T08:27:28.714Z,6.00
2024-02-24T08:29:56.967Z,5.90
2024-02-24T08:32:27.354Z,6.00
2024-02-24T08:34:55.590Z,6.20
2024-02-24T08:37:23.694Z,6.20
2024-02-24T08:39:51.784Z,6.40
2024-02-24T08:42:21.298Z,6.40
2024-02-24T08:44:52.601Z,6.50
2024-02-24T08:47:20.866Z,6.50
2024-02-24T08:49:49.120Z,6.60
2024-02-24T08:52:19.610Z,6.60
2024-02-24T08:54:49.449Z,6.60
2024-02-24T08:57:20.262Z,6.70
2024-02-24T08:59:50.146Z,6.80
2024-02-24T09:02:20.458Z,6.90
2024-02-24T09:04:48.641Z,6.90
2024-02-24T09:07:16.862Z,7.00
2024-02-24T09:09:45.553Z,7.00
2024-02-24T09:12:13.826Z,7.10
2024-02-24T09:14:42.111Z,7.10
2024-02-24T09:17:12.792Z,7.10
2024-02-24T09:19:44.231Z,6.90
2024-02-24T09:22:13.629Z,6.90
2024-02-24T09:24:42.150Z,6.90
2024-02-24T09:27:10.230Z,7.10
2024-02-24T09:29:38.370Z,7.10
2024-02-24T09:32:07.138Z,7.20
2024-02-24T09:34:36.685Z,7.30
2024-02-24T09:37:06.283Z,7.40
2024-02-24T09:39:34.474Z,7.40
2024-02-24T09:42:02.908Z,7.60
2024-02-24T09:44:31.165Z,7.70
2024-02-24T09:46:59.917Z,7.80
2024-02-24T09:49:31.838Z,7.90
2024-02-24T09:52:01.830Z,8.10
2024-02-24T09:54:30.625Z,8.30
2024-02-24T09:56:58.769Z,8.40
2024-02-24T09:59:27.442Z,8.40
2024-02-24T10:01:55.550Z,8.20
2024-02-24T10:04:24.521Z,8.10
2024-02-24T10:06:52.627Z,8.10
2024-02-24T10:09:22.386Z,8.20
2024-02-24T10:11:50.823Z,8.20
2024-02-24T10:14:19.035Z,8.30
2024-02-24T10:16:51.259Z,8.40
2024-02-24T10:19:19.529Z,8.30
2024-02-24T10:21:47.619Z,8.40
2024-02-24T10:24:15.687Z,8.60
2024-02-24T10:26:45.336Z,8.70
2024-02-24T10:29:16.876Z,8.80
2024-02-24T10:31:46.246Z,8.80
2024-02-24T10:34:15.288Z,8.80
2024-02-24T10:36:44.611Z,8.80
2024-02-24T10:39:13.208Z,8.80
2024-02-24T10:41:42.499Z,8.70
2024-02-24T10:44:22.180Z,8.60
2024-02-24T10:46:51.883Z,8.60
2024-02-24T10:49:20.652Z,8.70
2024-02-24T10:51:51.206Z,8.60
2024-02-24T10:54:23.813Z,8.60
2024-02-24T10:56:58.165Z,8.70
2024-02-24T10:59:31.685Z,8.70
2024-02-24T11:02:05.620Z,8.80
2024-02-24T11:04:36.675Z,8.80
2024-02-24T11:07:08.508Z,8.70
2024-02-24T11:09:38.343Z,8.80
2024-02-24T11:12:12.302Z,8.80
2024-02-24T11:14:44.048Z,8.80
2024-02-24T11:17:12.863Z,8.90
2024-02-24T11:19:45.475Z,8.90
2024-02-24T11:22:20.474Z,8.90
2024-02-24T11:25:01.420Z,9.00
2024-02-24T11:27:30.410Z,9.20
2024-02-24T11:30:00.445Z,9.30
2024-02-24T11:32:29.063Z,9.40
2024-02-24T11:34:58.425Z,9.50
2024-02-24T11:37:28.029Z,9.40
2024-02-24T11:39:57.105Z,9.40
2024-02-24T11:42:25.664Z,9.40
2024-02-24T11:44:54.595Z,9.40
2024-02-24T11:47:24.210Z,9.40
2024-02-24T11:49:53.605Z,9.50
2024-02-24T11:52:21.879Z,9.50
2024-02-24T11:54:50.132Z,9.50
2024-02-24T11:57:19.519Z,9.60
2024-02-24T11:59:51.784Z,9.60
2024-02-24T12:02:21.075Z,9.70
2024-02-24T12:04:50.880Z,9.70
2024-02-24T12:07:20.992Z,9.80
2024-02-24T12:09:51.531Z,10.10
2024-02-24T12:12:21.103Z,10.30
2024-02-24T12:14:49.390Z,10.50
2024-02-24T12:17:17.621Z,10.60
2024-02-24T12:19:49.825Z,10.70
2024-02-24T12:22:19.109Z,10.80
2024-02-24T12:24:47.264Z,10.70
2024-02-24T12:27:15.756Z,10.50
2024-02-24T12:29:44.096Z,10.30
2024-02-24T12:32:12.313Z,10.20
2024-02-24T12:34:40.435Z,10.20
2024-02-24T12:37:09.965Z,10.10
2024-02-24T12:39:42.563Z,10.10
2024-02-24T12:42:10.739Z,10.10
2024-02-24T12:44:38.980Z,10.00
2024-02-24T12:47:07.558Z,10.10
2024-02-24T12:49:36.146Z,10.00
2024-02-24T12:52:05.695Z,10.00
2024-02-24T12:54:35.236Z,10.00
2024-02-24T12:57:03.576Z,10.10
2024-02-24T12:59:32.094Z,10.00
2024-02-24T13:02:00.406Z,10.00
2024-02-24T13:04:29.240Z,10.00
2024-02-24T13:06:57.815Z,10.00
2024-02-24T13:09:26.332Z,10.00
2024-02-24T13:11:57.531Z,10.00
2024-02-24T13:14:26.019Z,10.00
2024-02-24T13:16:54.376Z,10.00
2024-02-24T13:19:22.882Z,10.10
2024-02-24T13:21:51.231Z,10.10
2024-02-24T13:24:19.330Z,10.10
2024-02-24T13:26:47.688Z,10.10
2024-02-24T13:29:17.250Z,10.10
2024-02-24T13:31:45.854Z,10.00
2024-02-24T13:34:14.457Z,10.00
2024-02-24T13:36:42.911Z,9.90
2024-02-24T13:39:11.684Z,9.90
2024-02-24T13:41:40.080Z,9.90
2024-02-24T13:44:13.427Z,9.80
2024-02-24T13:46:47.639Z,9.70
2024-02-24T13:49:18.633Z,9.70
2024-02-24T13:51:47.259Z,9.60
2024-02-24T13:54:15.474Z,9.60
2024-02-24T13:56:43.685Z,9.50
2024-02-24T13:59:11.878Z,9.60
2024-02-24T14:01:40.964Z,9.60
2024-02-24T14:04:10.440Z,9.60
2024-02-24T14:06:38.993Z,9.70
2024-02-24T14:09:08.349Z,9.70
2024-02-24T14:11:37.156Z,9.80
2024-02-24T14:14:05.534Z,9.80
2024-02-24T14:16:35.100Z,9.70
2024-02-24T14:19:04.010Z,9.70
2024-02-24T14:21:33.824Z,9.60
2024-02-24T14:24:04.846Z,9.70
2024-02-24T14:26:33.414Z,9.60
2024-02-24T14:29:02.734Z,9.50
2024-02-24T14:31:32.806Z,9.50
2024-02-24T14:34:01.640Z,9.40
2024-02-24T14:36:30.059Z,9.50
2024-02-24T14:39:01.183Z,9.60
2024-02-24T14:41:29.732Z,9.60
2024-02-24T14:43:58.280Z,9.80
2024-02-24T14:46:26.609Z,9.80
2024-02-24T14:48:55.104Z,9.80
2024-02-24T14:51:23.605Z,9.80
2024-02-24T14:53:53.237Z,9.80
2024-02-24T14:56:23.026Z,9.80
2024-02-24T14:58:51.170Z,9.70
2024-02-24T15:01:19.992Z,9.70
2024-02-24T15:03:48.886Z,9.60
2024-02-24T15:06:17.911Z,9.70
2024-02-24T15:08:46.255Z,9.70
2024-02-24T15:11:14.631Z,9.60
2024-02-24T15:13:44.223Z,9.50
2024-02-24T15:16:12.367Z,9.60
2024-02-24T15:18:40.699Z,9.50
2024-02-24T15:21:09.487Z,9.50
2024-02-24T15:23:37.774Z,9.40
2024-02-24T15:26:06.067Z,9.50
2024-02-24T15:28:34.736Z,9.50
2024-02-24T15:31:04.933Z,9.50
2024-02-24T15:33:33.337Z,9.50
2024-02-24T15:36:02.210Z,9.40
2024-02-24T15:38:30.781Z,9.40
2024-02-24T15:40:59.019Z,9.30
2024-02-24T15:43:27.210Z,9.30
2024-02-24T15:45:56.582Z,9.20
2024-02-24T15:48:26.451Z,8.90
2024-02-24T15:50:55.346Z,8.40
2024-02-24T15:53:23.493Z,7.90
2024-02-24T15:55:55.863Z,7.70
2024-02-24T15:58:24.078Z,7.50
2024-02-24T16:00:52.420Z,7.40
2024-02-24T16:03:21.779Z,7.30
2024-02-24T16:05:51.363Z,7.30
2024-02-24T16:08:20.460Z,7.20
2024-02-24T16:10:49.769Z,7.10
2024-02-24T16:13:18.335Z,7.00
2024-02-24T16:15:46.636Z,7.00
2024-02-24T16:18:16.107Z,6.90
2024-02-24T16:20:45.218Z,6.90
2024-02-24T16:23:16.865Z,6.90
2024-02-24T16:25:45.182Z,6.90
2024-02-24T16:28:14.488Z,6.90
2024-02-24T16:30:42.674Z,7.00
2024-02-24T16:33:11.005Z,6.90
2024-02-24T16:35:39.334Z,6.80
2024-02-24T16:38:07.698Z,6.60
2024-02-24T16:40:37.281Z,6.40
2024-02-24T16:43:05.814Z,6.30
2024-02-24T16:45:34.103Z,6.30
2024-02-24T16:48:02.452Z,6.30
2024-02-24T16:50:30.915Z,6.30
2024-02-24T16:52:59.125Z,6.30
2024-02-24T16:55:27.433Z,6.30
2024-02-24T16:57:56.889Z,6.20
2024-02-24T17:00:25.345Z,6.20
2024-02-24T17:02:53.616Z,6.20
2024-02-24T17:05:22.168Z,6.20
2024-02-24T17:07:50.347Z,6.20
2024-02-24T17:10:18.540Z,6.10
2024-02-24T17:12:46.971Z,6.10
2024-02-24T17:15:16.624Z,6.10
2024-02-24T17:17:44.945Z,6.00
2024-02-24T17:20:13.394Z,6.00
2024-02-24T17:22:41.733Z,5.90
2024-02-24T17:25:10.395Z,6.00
2024-02-24T17:27:39.772Z,6.00
2024-02-24T17:30:09.055Z,6.00
2024-02-24T17:32:38.576Z,5.90
2024-02-24T17:35:08.225Z,5.90
2024-02-24T17:37:36.456Z,5.90
2024-02-24T17:40:07.230Z,5.90
2024-02-24T17:42:35.742Z,6.00
2024-02-24T17:45:04.081Z,6.00
2024-02-24T17:47:32.375Z,6.00
2024-02-24T17:50:02.091Z,5.90
2024-02-24T17:52:30.260Z,5.90
2024-02-24T17:54:59.003Z,5.90
2024-02-24T17:57:27.486Z,6.00
2024-02-24T17:59:55.930Z,6.00
2024-02-24T18:02:24.311Z,5.90
2024-02-24T18:04:52.619Z,5.90
2024-02-24T18:07:22.099Z,5.80
2024-02-24T18:09:50.312Z,5.80
2024-02-24T18:12:18.726Z,5.70
2024-02-24T18:14:47.046Z,5.80
2024-02-24T18:17:15.443Z,5.70
2024-02-24T18:19:43.751Z,5.70
2024-02-24T18:22:11.928Z,5.70
2024-02-24T18:24:44.864Z,5.70
2024-02-24T18:27:13.183Z,5.70
2024-02-24T18:29:41.396Z,5.60
2024-02-24T18:32:09.549Z,5.60
2024-02-24T18:34:38.446Z,5.70
2024-02-24T18:37:06.645Z,5.70
2024-02-24T18:39:35.901Z,5.70
2024-02-24T18:42:07.350Z,5.70
2024-02-24T18:44:36.186Z,5.70
2024-02-24T18:47:04.684Z,5.70
2024-02-24T18:49:34.134Z,5.70
2024-02-24T18:52:03.636Z,5.70
2024-02-24T18:54:31.891Z,5.70
2024-02-24T18:57:02.536Z,5.60
2024-02-24T18:59:32.581Z,5.60
2024-02-24T19:02:00.930Z,5.60
2024-02-24T19:04:29.111Z,5.50
2024-02-24T19:06:58.267Z,5.60
2024-02-24T19:09:26.701Z,5.60
2024-02-24T19:11:54.966Z,5.60
2024-02-24T19:14:23.972Z,5.60
2024-02-24T19:16:53.588Z,5.50
2024-02-24T19:19:21.977Z,5.50
2024-02-24T19:21:50.185Z,5.50
2024-02-24T19:24:18.403Z,5.40
2024-02-24T19:26:46.582Z,5.40
2024-02-24T19:29:15.359Z,5.40
2024-02-24T19:31:43.564Z,5.50
2024-02-24T19:34:15.213Z,5.40
2024-02-24T19:36:43.468Z,5.40
2024-02-24T19:39:18.364Z,5.40
2024-02-24T19:41:47.720Z,5.40
2024-02-24T19:44:16.561Z,5.40
2024-02-24T19:46:45.236Z,5.40
2024-02-24T19:49:16.454Z,5.40
2024-02-24T19:51:44.805Z,5.40
2024-02-24T19:54:13.019Z,5.40
2024-02-24T19:56:41.345Z,5.40
2024-02-24T19:59:09.711Z,5.50
2024-02-24T20:01:40.431Z,5.50
2024-02-24T20:04:09.046Z,5.60
2024-02-24T20:06:38.863Z,5.70
2024-02-24T20:09:07.207Z,5.60
2024-02-24T20:11:35.455Z,5.60
2024-02-24T20:14:03.720Z,5.60
2024-02-24T20:16:31.887Z,5.60
2024-02-24T20:19:00.223Z,5.50
2024-02-24T20:21:28.746Z,5.60
2024-02-24T20:23:58.349Z,5.60
2024-02-24T20:26:26.609Z,5.70
2024-02-24T20:28:55.508Z,5.70
2024-02-24T20:31:24.386Z,5.80
2024-02-24T20:33:59.907Z,5.80
2024-02-24T20:36:32.071Z,5.70
2024-02-24T20:39:01.673Z,5.70
2024-02-24T20:41:30.510Z,5.70
2024-02-24T20:44:00.992Z,5.50
2024-02-24T20:46:29.473Z,5.50
2024-02-24T20:48:58.848Z,5.50
2024-02-24T20:51:27.207Z,5.50
2024-02-24T20:53:55.380Z,5.40
2024-02-24T20:56:24.881Z,5.40
2024-02-24T20:58:53.068Z,5.40
2024-02-24T21:01:21.215Z,5.30
2024-02-24T21:03:49.410Z,5.30
2024-02-24T21:06:17.609Z,5.20
2024-02-24T21:08:45.961Z,5.00
2024-02-24T21:11:14.170Z,4.90
2024-02-24T21:13:43.817Z,4.90
2024-02-24T21:16:12.029Z,4.90
2024-02-24T21:21:09.438Z,4.80
2024-02-24T21:23:40.186Z,4.70
2024-02-24T21:26:09.127Z,4.70
2024-02-24T21:28:37.355Z,4.70
2024-02-24T21:31:08.823Z,4.70
2024-02-24T21:33:37.211Z,4.70
2024-02-24T21:36:08.061Z,4.60
2024-02-24T21:38:36.293Z,4.60
2024-02-24T21:41:04.671Z,4.60
2024-02-24T21:43:32.855Z,4.60
2024-02-24T21:46:01.333Z,4.60
2024-02-24T21:48:30.886Z,4.60
2024-02-24T21:51:02.564Z,4.70
2024-02-24T21:53:31.084Z,4.70
2024-02-24T21:55:59.330Z,4.70
2024-02-24T21:58:27.526Z,5.10
2024-02-24T22:00:56.234Z,5.00
2024-02-24T22:03:25.435Z,4.90
2024-02-24T22:05:55.257Z,4.80
2024-02-24T22:08:23.501Z,4.80
2024-02-24T22:10:51.774Z,4.90
2024-02-24T22:13:20.219Z,4.90
2024-02-24T22:15:48.408Z,4.80
2024-02-24T22:18:16.721Z,4.80
2024-02-24T22:20:45.101Z,4.80
2024-02-24T22:23:14.730Z,4.80
2024-02-24T22:25:43.100Z,4.80
2024-02-24T22:28:11.306Z,4.70
2024-02-24T22:30:39.539Z,4.70
2024-02-24T22:33:07.839Z,4.70
2024-02-24T22:35:36.203Z,4.70
2024-02-24T22:38:04.699Z,4.70
2024-02-24T22:40:34.391Z,4.70
2024-02-24T22:43:02.538Z,4.70
2024-02-24T22:45:30.676Z,4.80
2024-02-24T22:47:59.019Z,4.70
2024-02-24T22:50:28.700Z,4.80
2024-02-24T22:52:57.165Z,4.80
2024-02-24T22:55:28.220Z,4.90
2024-02-24T22:57:58.081Z,5.00
2024-02-24T23:00:26.315Z,5.00
2024-02-24T23:02:54.894Z,5.00
2024-02-24T23:05:23.230Z,5.00
2024-02-24T23:07:51.422Z,5.00
2024-02-24T23:10:19.521Z,5.10
2024-02-24T23:12:48.667Z,5.30
2024-02-24T23:15:18.398Z,5.60
2024-02-24T23:17:47.333Z,5.90
2024-02-24T23:20:15.583Z,6.10
2024-02-24T23:22:43.733Z,6.00
2024-02-24T23:25:11.911Z,5.90
2024-02-24T23:27:40.216Z,5.70
2024-02-24T23:30:09.876Z,5.60
2024-02-24T23:32:39.686Z,5.70
2024-02-24T23:35:08.585Z,5.60
2024-02-24T23:37:36.702Z,5.50
2024-02-24T23:40:05.357Z,5.40
2024-02-24T23:42:33.496Z,5.40
2024-02-24T23:45:01.803Z,5.40
2024-02-24T23:47:30.186Z,5.40
2024-02-24T23:49:59.703Z,5.30
2024-02-24T23:52:27.856Z,5.30
2024-02-24T23:54:56.419Z,5.30
2024-02-24T23:57:26.408Z,5.20
2024-02-24T23:59:54.733Z,5.10
